Shanghai Express — DPCK — position and weather

sailwx.info

Track history (hours):
 
Tides and Currents Weather Stations Pressure Air Temp Water Temp Dewpoint Dewpoint Depression Visibility Wind Speed Wind Dir Waves Ship Positions

Shanghai Express

Last reported at 2016-Jul-18 00:07 UTC. Time now 2016-Jul-26 14:10 UTC.
Position N 31°24' E 032°19'.
Warning: this ship's position is 8 days out of date.

Length 320.6 m; beam 42.8 m; draft 14.5 m.

Type: Ship. MMSI: 211367460.

Date/timePositionNaut miles runAvg speedWind from/ knotsBaromVisibWave heightAir tempDewpointWater temp
2016-Jul-18 00:07N 31°24' E 032°19'0 0.0
2016-Jul-17 22:17N 31°24' E 032°19'0 0.0
2016-Jul-17 21:26N 31°24' E 032°19'0 0.0
2016-Jul-17 20:32N 31°24' E 032°19'0 0.0
2016-Jul-17 19:33N 31°24' E 032°19'0 0.0
2016-Jul-17 18:23N 31°24' E 032°19'0 0.0
2016-Jul-17 17:31N 31°24' E 032°19'29 1.6
2016-Jul-16 23:33N 31°28' E 031°45'0 0.0
2016-Jul-16 22:33N 31°28' E 031°46'0 0.0
2016-Jul-16 21:25N 31°28' E 031°45'0 0.0
2016-Jul-16 20:33N 31°28' E 031°45'0 0.0
2016-Jul-16 19:33N 31°28' E 031°45'7 6.1
2016-Jul-16 18:21N 31°35' E 031°47'1113.7
2016-Jul-16 17:33N 31°45' E 031°41'1817.2
2016-Jul-16 16:31N 31°51' E 031°21'2217.0
2016-Jul-16 15:12N 31°58' E 030°56'1117.1
2016-Jul-16 14:33N 32°01' E 030°44'1917.1
2016-Jul-16 13:26N 32°08' E 030°23'1517.2
2016-Jul-16 12:33N 32°12' E 030°06'1917.1
2016-Jul-16 11:28N 32°18' E 029°45'1617.1
2016-Jul-16 10:33N 32°24' E 029°27'1717.0
2016-Jul-16 09:33N 32°29' E 029°09'1717.3
2016-Jul-16 08:34N 32°35' E 028°49'2017.6
2016-Jul-16 07:27N 32°41' E 028°27'12718.3
2016-Jul-16 00:30N 33°23' E 026°04'2217.5
2016-Jul-15 23:16N 33°29' E 025°39'1817.8
2016-Jul-15 22:15N 33°35' E 025°19'10017.6
2016-Jul-15 16:34N 34°08' E 023°25'1817.8
2016-Jul-15 15:32N 34°13' E 023°04'40817.7
2016-Jul-14 16:29N 36°26' E 015°11'1617.5
2016-Jul-14 15:33N 36°31' E 014°52'1717.4
2016-Jul-14 14:33N 36°37' E 014°31'1817.7
2016-Jul-14 13:33N 36°43' E 014°11'1918.8
2016-Jul-14 12:33N 36°51' E 013°50'1919.3
2016-Jul-14 11:33N 36°59' E 013°28'21918.2
2016-Jul-13 23:33N 38°53' E 009°31'1818.3
2016-Jul-13 22:33N 39°04' E 009°12'1110.6
2016-Jul-13 21:33N 39°13' E 009°05'0 0.3
2016-Jul-13 20:32N 39°13' E 009°04'0 0.0
2016-Jul-13 19:32N 39°13' E 009°04'0 0.0
2016-Jul-13 18:31N 39°13' E 009°04'0 0.0
2016-Jul-13 17:31N 39°13' E 009°04'0 0.0
2016-Jul-13 16:33N 39°13' E 009°04'0 0.0
2016-Jul-13 15:33N 39°13' E 009°04'0 0.0
2016-Jul-13 14:33N 39°13' E 009°04'0 0.0
2016-Jul-13 13:32N 39°13' E 009°04'0 0.0
2016-Jul-13 12:32N 39°13' E 009°04'0 0.0
2016-Jul-13 11:31N 39°13' E 009°04'0 0.0
2016-Jul-13 10:31N 39°13' E 009°04'0 0.0
2016-Jul-13 09:33N 39°13' E 009°04'0 0.0
2016-Jul-13 08:33N 39°13' E 009°04'0 0.0
2016-Jul-13 07:30N 39°13' E 009°04'0 0.0
2016-Jul-13 06:29N 39°13' E 009°04'3 0.9
2016-Jul-13 03:32N 39°11' E 009°06'6 6.3
2016-Jul-13 02:33N 39°05' E 009°07'1413.8
2016-Jul-13 01:33N 38°52' E 009°01'1716.4
2016-Jul-13 00:32N 38°45' E 008°41'9116.8
2016-Jul-12 19:05N 38°20' E 006°49'7716.8
2016-Jul-12 14:30N 38°02' E 005°13'6 6.2
2016-Jul-12 13:33N 38°02' E 005°06'1 1.0
2016-Jul-12 12:33N 38°01' E 005°07'1 0.9
2016-Jul-12 11:33N 38°01' E 005°08'1 0.7
2016-Jul-12 10:32N 38°00' E 005°09'1 0.6
2016-Jul-12 09:23N 37°60' E 005°09'1 1.7
2016-Jul-12 08:33N 37°59' E 005°08'1413.8
2016-Jul-12 07:33N 37°55' E 004°51'1615.8
2016-Jul-12 06:33N 37°51' E 004°32'1615.9
2016-Jul-12 05:33N 37°47' E 004°13'1716.6
2016-Jul-12 04:34N 37°43' E 003°52'1716.5
2016-Jul-12 03:34N 37°38' E 003°32'1616.2
2016-Jul-12 02:33N 37°34' E 003°12'1616.1
2016-Jul-12 01:33N 37°30' E 002°53'1615.9
2016-Jul-12 00:33N 37°25' E 002°34'1616.0
2016-Jul-11 23:33N 37°21' E 002°14'1615.8
2016-Jul-11 22:33N 37°17' E 001°55'1615.8
2016-Jul-11 21:33N 37°13' E 001°36'1616.3
2016-Jul-11 20:33N 37°09' E 001°16'1616.3
2016-Jul-11 19:33N 37°04' E 000°56'1616.4
2016-Jul-11 18:33N 37°00' E 000°36'1616.1
2016-Jul-11 17:33N 36°56' E 000°17'1616.1
2016-Jul-11 16:33N 36°51' W 000°02'1716.8
2016-Jul-11 15:33N 36°47' W 000°23'1716.7
2016-Jul-11 14:32N 36°42' W 000°43'1716.8
2016-Jul-11 13:33N 36°38' W 001°03'1616.1
2016-Jul-11 12:32N 36°34' W 001°23'1616.3
2016-Jul-11 11:33N 36°29' W 001°42'2016.4
2016-Jul-11 10:19N 36°23' W 002°06'15216.7
2016-Jul-11 01:14N 35°60' W 005°11'1217.3
2016-Jul-11 00:33N 35°58' W 005°26'1916.4
2016-Jul-10 23:24N 35°54' W 005°49'8116.2
2016-Jul-10 18:24N 35°60' W 007°28'3516.4
2016-Jul-10 16:16N 36°09' W 008°10'1116.1
2016-Jul-10 15:33N 36°11' W 008°24'13215.7
2016-Jul-10 07:11N 36°53' W 010°60'1015.4
2016-Jul-10 06:33N 36°57' W 011°11'3115.7
2016-Jul-10 04:33N 37°09' W 011°47'1716.6
2016-Jul-10 03:32N 37°15' W 012°07'6816.4
2016-Jul-09 23:22N 37°40' W 013°27'3316.5
2016-Jul-09 21:22N 37°51' W 014°06'5213.3
2016-Jul-09 17:27N 38°07' W 015°09'1 1.6
2016-Jul-09 16:33N 38°08' W 015°10'1 1.3
2016-Jul-09 15:32N 38°09' W 015°12'1 1.0
2016-Jul-09 14:32N 38°10' W 015°12'1 1.0
2016-Jul-09 13:33N 38°11' W 015°13'1 1.0
2016-Jul-09 12:33N 38°12' W 015°14'1 1.0
2016-Jul-09 11:31N 38°12' W 015°15'4 4.0
2016-Jul-09 10:33N 38°13' W 015°20'1818.2
2016-Jul-09 09:33N 38°19' W 015°42'2222.0
2016-Jul-09 08:33N 38°27' W 016°08'1917.7
2016-Jul-09 07:28N 38°33' W 016°31'1516.5
2016-Jul-09 06:33N 38°38' W 016°50'3516.6
2016-Jul-09 04:27N 38°49' W 017°32'1616.7
2016-Jul-09 03:28N 38°54' W 017°52'1616.9
2016-Jul-09 02:33N 38°59' W 018°11'  
Track history (hours):
 
Tides and Currents Weather Stations Pressure Air Temp Water Temp Dewpoint Dewpoint Depression Visibility Wind Speed Wind Dir Waves Ship Positions

Shanghai Express

Last reported at 2016-Jul-18 00:07 UTC. Time now 2016-Jul-26 14:10 UTC.
Position N 31°24' E 032°19'.
Warning: this ship's position is 8 days out of date.

Length 320.6 m; beam 42.8 m; draft 14.5 m.

Type: Ship. MMSI: 211367460.

Date/timePositionNaut miles runAvg speedWind from/ knotsBaromVisibWave heightAir tempDewpointWater temp
2016-Jul-18 00:07N 31°24' E 032°19'0 0.0
2016-Jul-17 22:17N 31°24' E 032°19'0 0.0
2016-Jul-17 21:26N 31°24' E 032°19'0 0.0
2016-Jul-17 20:32N 31°24' E 032°19'0 0.0
2016-Jul-17 19:33N 31°24' E 032°19'0 0.0
2016-Jul-17 18:23N 31°24' E 032°19'0 0.0
2016-Jul-17 17:31N 31°24' E 032°19'29 1.6
2016-Jul-16 23:33N 31°28' E 031°45'0 0.0
2016-Jul-16 22:33N 31°28' E 031°46'0 0.0
2016-Jul-16 21:25N 31°28' E 031°45'0 0.0
2016-Jul-16 20:33N 31°28' E 031°45'0 0.0
2016-Jul-16 19:33N 31°28' E 031°45'7 6.1
2016-Jul-16 18:21N 31°35' E 031°47'1113.7
2016-Jul-16 17:33N 31°45' E 031°41'1817.2
2016-Jul-16 16:31N 31°51' E 031°21'2217.0
2016-Jul-16 15:12N 31°58' E 030°56'1117.1
2016-Jul-16 14:33N 32°01' E 030°44'1917.1
2016-Jul-16 13:26N 32°08' E 030°23'1517.2
2016-Jul-16 12:33N 32°12' E 030°06'1917.1
2016-Jul-16 11:28N 32°18' E 029°45'1617.1
2016-Jul-16 10:33N 32°24' E 029°27'1717.0
2016-Jul-16 09:33N 32°29' E 029°09'1717.3
2016-Jul-16 08:34N 32°35' E 028°49'2017.6
2016-Jul-16 07:27N 32°41' E 028°27'12718.3
2016-Jul-16 00:30N 33°23' E 026°04'2217.5
2016-Jul-15 23:16N 33°29' E 025°39'1817.8
2016-Jul-15 22:15N 33°35' E 025°19'10017.6
2016-Jul-15 16:34N 34°08' E 023°25'1817.8
2016-Jul-15 15:32N 34°13' E 023°04'40817.7
2016-Jul-14 16:29N 36°26' E 015°11'1617.5
2016-Jul-14 15:33N 36°31' E 014°52'1717.4
2016-Jul-14 14:33N 36°37' E 014°31'1817.7
2016-Jul-14 13:33N 36°43' E 014°11'1918.8
2016-Jul-14 12:33N 36°51' E 013°50'1919.3
2016-Jul-14 11:33N 36°59' E 013°28'21918.2
2016-Jul-13 23:33N 38°53' E 009°31'1818.3
2016-Jul-13 22:33N 39°04' E 009°12'1110.6
2016-Jul-13 21:33N 39°13' E 009°05'0 0.3
2016-Jul-13 20:32N 39°13' E 009°04'0 0.0
2016-Jul-13 19:32N 39°13' E 009°04'0 0.0
2016-Jul-13 18:31N 39°13' E 009°04'0 0.0
2016-Jul-13 17:31N 39°13' E 009°04'0 0.0
2016-Jul-13 16:33N 39°13' E 009°04'0 0.0
2016-Jul-13 15:33N 39°13' E 009°04'0 0.0
2016-Jul-13 14:33N 39°13' E 009°04'0 0.0
2016-Jul-13 13:32N 39°13' E 009°04'0 0.0
2016-Jul-13 12:32N 39°13' E 009°04'0 0.0
2016-Jul-13 11:31N 39°13' E 009°04'0 0.0
2016-Jul-13 10:31N 39°13' E 009°04'0 0.0
2016-Jul-13 09:33N 39°13' E 009°04'0 0.0
2016-Jul-13 08:33N 39°13' E 009°04'0 0.0
2016-Jul-13 07:30N 39°13' E 009°04'0 0.0
2016-Jul-13 06:29N 39°13' E 009°04'3 0.9
2016-Jul-13 03:32N 39°11' E 009°06'6 6.3
2016-Jul-13 02:33N 39°05' E 009°07'1413.8
2016-Jul-13 01:33N 38°52' E 009°01'1716.4
2016-Jul-13 00:32N 38°45' E 008°41'9116.8
2016-Jul-12 19:05N 38°20' E 006°49'7716.8
2016-Jul-12 14:30N 38°02' E 005°13'6 6.2
2016-Jul-12 13:33N 38°02' E 005°06'1 1.0
2016-Jul-12 12:33N 38°01' E 005°07'1 0.9
2016-Jul-12 11:33N 38°01' E 005°08'1 0.7
2016-Jul-12 10:32N 38°00' E 005°09'1 0.6
2016-Jul-12 09:23N 37°60' E 005°09'1 1.7
2016-Jul-12 08:33N 37°59' E 005°08'1413.8
2016-Jul-12 07:33N 37°55' E 004°51'1615.8
2016-Jul-12 06:33N 37°51' E 004°32'1615.9
2016-Jul-12 05:33N 37°47' E 004°13'1716.6
2016-Jul-12 04:34N 37°43' E 003°52'1716.5
2016-Jul-12 03:34N 37°38' E 003°32'1616.2
2016-Jul-12 02:33N 37°34' E 003°12'1616.1
2016-Jul-12 01:33N 37°30' E 002°53'1615.9
2016-Jul-12 00:33N 37°25' E 002°34'1616.0
2016-Jul-11 23:33N 37°21' E 002°14'1615.8
2016-Jul-11 22:33N 37°17' E 001°55'1615.8
2016-Jul-11 21:33N 37°13' E 001°36'1616.3
2016-Jul-11 20:33N 37°09' E 001°16'1616.3
2016-Jul-11 19:33N 37°04' E 000°56'1616.4
2016-Jul-11 18:33N 37°00' E 000°36'1616.1
2016-Jul-11 17:33N 36°56' E 000°17'1616.1
2016-Jul-11 16:33N 36°51' W 000°02'1716.8
2016-Jul-11 15:33N 36°47' W 000°23'1716.7
2016-Jul-11 14:32N 36°42' W 000°43'1716.8
2016-Jul-11 13:33N 36°38' W 001°03'1616.1
2016-Jul-11 12:32N 36°34' W 001°23'1616.3
2016-Jul-11 11:33N 36°29' W 001°42'2016.4
2016-Jul-11 10:19N 36°23' W 002°06'15216.7
2016-Jul-11 01:14N 35°60' W 005°11'1217.3
2016-Jul-11 00:33N 35°58' W 005°26'1916.4
2016-Jul-10 23:24N 35°54' W 005°49'8116.2
2016-Jul-10 18:24N 35°60' W 007°28'3516.4
2016-Jul-10 16:16N 36°09' W 008°10'1116.1
2016-Jul-10 15:33N 36°11' W 008°24'13215.7
2016-Jul-10 07:11N 36°53' W 010°60'1015.4
2016-Jul-10 06:33N 36°57' W 011°11'3115.7
2016-Jul-10 04:33N 37°09' W 011°47'1716.6
2016-Jul-10 03:32N 37°15' W 012°07'6816.4
2016-Jul-09 23:22N 37°40' W 013°27'3316.5
2016-Jul-09 21:22N 37°51' W 014°06'5213.3
2016-Jul-09 17:27N 38°07' W 015°09'1 1.6
2016-Jul-09 16:33N 38°08' W 015°10'1 1.3
2016-Jul-09 15:32N 38°09' W 015°12'1 1.0
2016-Jul-09 14:32N 38°10' W 015°12'1 1.0
2016-Jul-09 13:33N 38°11' W 015°13'1 1.0
2016-Jul-09 12:33N 38°12' W 015°14'1 1.0
2016-Jul-09 11:31N 38°12' W 015°15'4 4.0
2016-Jul-09 10:33N 38°13' W 015°20'1818.2
2016-Jul-09 09:33N 38°19' W 015°42'2222.0
2016-Jul-09 08:33N 38°27' W 016°08'1917.7
2016-Jul-09 07:28N 38°33' W 016°31'1516.5
2016-Jul-09 06:33N 38°38' W 016°50'3516.6
2016-Jul-09 04:27N 38°49' W 017°32'1616.7
2016-Jul-09 03:28N 38°54' W 017°52'1616.9
2016-Jul-09 02:33N 38°59' W 018°11'  

Dump ship's entire track history